sensor_id;sensor_type;location;lat;lon;timestamp;P1;durP1;ratioP1;P2;durP2;ratioP2
58360;SDS011;44164;44.954;10.068;2022-12-07T00:01:28;3.27;;;2.27;;
58360;SDS011;44164;44.954;10.068;2022-12-07T00:03:59;3.95;;;3.03;;
58360;SDS011;44164;44.954;10.068;2022-12-07T00:06:31;4.13;;;2.67;;
58360;SDS011;44164;44.954;10.068;2022-12-07T00:09:01;3.95;;;2.83;;
58360;SDS011;44164;44.954;10.068;2022-12-07T00:11:28;3.35;;;2.83;;
58360;SDS011;44164;44.954;10.068;2022-12-07T00:13:55;4.82;;;3.40;;
58360;SDS011;44164;44.954;10.068;2022-12-07T00:16:23;4.53;;;2.90;;
58360;SDS011;44164;44.954;10.068;2022-12-07T00:18:51;3.83;;;2.70;;
58360;SDS011;44164;44.954;10.068;2022-12-07T00:21:18;4.35;;;3.38;;
58360;SDS011;44164;44.954;10.068;2022-12-07T00:23:46;3.65;;;3.10;;
58360;SDS011;44164;44.954;10.068;2022-12-07T00:28:57;3.78;;;2.90;;
58360;SDS011;44164;44.954;10.068;2022-12-07T00:31:26;4.32;;;3.67;;
58360;SDS011;44164;44.954;10.068;2022-12-07T00:33:53;3.25;;;2.65;;
58360;SDS011;44164;44.954;10.068;2022-12-07T00:36:20;4.28;;;3.00;;
58360;SDS011;44164;44.954;10.068;2022-12-07T00:38:49;3.95;;;3.22;;
58360;SDS011;44164;44.954;10.068;2022-12-07T00:41:17;3.13;;;2.70;;
58360;SDS011;44164;44.954;10.068;2022-12-07T00:43:44;4.38;;;3.13;;
58360;SDS011;44164;44.954;10.068;2022-12-07T00:46:12;3.70;;;2.87;;
58360;SDS011;44164;44.954;10.068;2022-12-07T00:48:38;3.17;;;2.75;;
58360;SDS011;44164;44.954;10.068;2022-12-07T00:51:04;3.47;;;2.72;;
58360;SDS011;44164;44.954;10.068;2022-12-07T00:53:31;4.00;;;3.25;;
58360;SDS011;44164;44.954;10.068;2022-12-07T00:56:09;3.85;;;3.00;;
58360;SDS011;44164;44.954;10.068;2022-12-07T00:58:37;3.20;;;2.60;;
58360;SDS011;44164;44.954;10.068;2022-12-07T01:01:04;4.13;;;2.90;;
58360;SDS011;44164;44.954;10.068;2022-12-07T01:03:31;4.07;;;2.72;;
58360;SDS011;44164;44.954;10.068;2022-12-07T01:05:58;4.00;;;2.90;;
58360;SDS011;44164;44.954;10.068;2022-12-07T01:08:25;3.63;;;2.50;;
58360;SDS011;44164;44.954;10.068;2022-12-07T01:10:59;3.05;;;2.50;;
58360;SDS011;44164;44.954;10.068;2022-12-07T01:13:29;3.67;;;2.92;;
58360;SDS011;44164;44.954;10.068;2022-12-07T01:15:57;5.00;;;3.05;;
58360;SDS011;44164;44.954;10.068;2022-12-07T01:18:27;4.35;;;2.85;;
58360;SDS011;44164;44.954;10.068;2022-12-07T01:21:05;3.67;;;2.70;;
58360;SDS011;44164;44.954;10.068;2022-12-07T01:23:33;3.40;;;2.83;;
58360;SDS011;44164;44.954;10.068;2022-12-07T01:26:02;3.30;;;2.95;;
58360;SDS011;44164;44.954;10.068;2022-12-07T01:28:29;3.33;;;2.88;;
58360;SDS011;44164;44.954;10.068;2022-12-07T01:31:00;3.10;;;2.80;;
58360;SDS011;44164;44.954;10.068;2022-12-07T01:33:28;3.53;;;2.90;;
58360;SDS011;44164;44.954;10.068;2022-12-07T01:36:06;3.45;;;2.45;;
58360;SDS011;44164;44.954;10.068;2022-12-07T01:38:38;3.50;;;2.65;;
58360;SDS011;44164;44.954;10.068;2022-12-07T01:41:04;3.70;;;2.58;;
58360;SDS011;44164;44.954;10.068;2022-12-07T01:43:31;3.80;;;2.45;;
58360;SDS011;44164;44.954;10.068;2022-12-07T01:45:59;3.45;;;2.90;;
58360;SDS011;44164;44.954;10.068;2022-12-07T01:48:27;3.35;;;2.75;;
58360;SDS011;44164;44.954;10.068;2022-12-07T01:50:56;3.42;;;2.80;;
58360;SDS011;44164;44.954;10.068;2022-12-07T01:53:27;3.38;;;2.70;;
58360;SDS011;44164;44.954;10.068;2022-12-07T01:55:55;3.13;;;2.58;;
58360;SDS011;44164;44.954;10.068;2022-12-07T01:58:22;3.27;;;2.83;;
58360;SDS011;44164;44.954;10.068;2022-12-07T02:00:49;4.47;;;2.60;;
58360;SDS011;44164;44.954;10.068;2022-12-07T02:05:46;3.90;;;2.90;;
58360;SDS011;44164;44.954;10.068;2022-12-07T02:08:13;3.05;;;2.65;;
58360;SDS011;44164;44.954;10.068;2022-12-07T02:10:39;3.10;;;2.50;;
58360;SDS011;44164;44.954;10.068;2022-12-07T02:13:19;3.20;;;2.30;;
58360;SDS011;44164;44.954;10.068;2022-12-07T02:21:33;3.20;;;2.75;;
58360;SDS011;44164;44.954;10.068;2022-12-07T02:30:00;4.32;;;2.90;;
58360;SDS011;44164;44.954;10.068;2022-12-07T02:35:18;3.70;;;2.85;;
58360;SDS011;44164;44.954;10.068;2022-12-07T02:40:29;3.88;;;2.90;;
58360;SDS011;44164;44.954;10.068;2022-12-07T02:43:21;3.83;;;3.17;;
58360;SDS011;44164;44.954;10.068;2022-12-07T02:45:47;3.80;;;2.95;;
58360;SDS011;44164;44.954;10.068;2022-12-07T02:48:16;3.37;;;3.07;;
58360;SDS011;44164;44.954;10.068;2022-12-07T02:53:28;3.50;;;2.78;;
58360;SDS011;44164;44.954;10.068;2022-12-07T02:55:54;3.38;;;2.85;;
58360;SDS011;44164;44.954;10.068;2022-12-07T02:58:32;4.28;;;2.80;;
58360;SDS011;44164;44.954;10.068;2022-12-07T03:01:21;3.42;;;2.72;;
58360;SDS011;44164;44.954;10.068;2022-12-07T03:04:14;4.13;;;2.95;;
58360;SDS011;44164;44.954;10.068;2022-12-07T03:06:53;3.75;;;2.60;;
58360;SDS011;44164;44.954;10.068;2022-12-07T03:09:27;3.42;;;2.65;;
58360;SDS011;44164;44.954;10.068;2022-12-07T03:12:07;3.22;;;2.53;;
58360;SDS011;44164;44.954;10.068;2022-12-07T03:14:45;3.40;;;2.92;;
58360;SDS011;44164;44.954;10.068;2022-12-07T03:17:17;4.15;;;3.20;;
58360;SDS011;44164;44.954;10.068;2022-12-07T03:19:46;3.42;;;2.80;;
58360;SDS011;44164;44.954;10.068;2022-12-07T03:22:14;4.05;;;3.00;;
58360;SDS011;44164;44.954;10.068;2022-12-07T03:24:51;3.58;;;2.90;;
58360;SDS011;44164;44.954;10.068;2022-12-07T03:27:20;2.90;;;2.45;;
58360;SDS011;44164;44.954;10.068;2022-12-07T03:29:50;3.90;;;2.92;;
58360;SDS011;44164;44.954;10.068;2022-12-07T03:32:34;3.45;;;2.85;;
58360;SDS011;44164;44.954;10.068;2022-12-07T03:35:05;3.35;;;2.75;;
58360;SDS011;44164;44.954;10.068;2022-12-07T03:37:43;3.83;;;3.10;;
58360;SDS011;44164;44.954;10.068;2022-12-07T03:43:41;2.75;;;2.22;;
58360;SDS011;44164;44.954;10.068;2022-12-07T03:51:45;3.30;;;2.90;;
58360;SDS011;44164;44.954;10.068;2022-12-07T03:54:31;3.47;;;2.67;;
58360;SDS011;44164;44.954;10.068;2022-12-07T03:57:02;3.27;;;2.67;;
58360;SDS011;44164;44.954;10.068;2022-12-07T03:59:29;3.42;;;2.75;;
58360;SDS011;44164;44.954;10.068;2022-12-07T04:01:56;3.17;;;2.85;;
58360;SDS011;44164;44.954;10.068;2022-12-07T04:04:25;3.53;;;2.58;;
58360;SDS011;44164;44.954;10.068;2022-12-07T04:06:51;2.75;;;2.38;;
58360;SDS011;44164;44.954;10.068;2022-12-07T04:09:17;2.78;;;2.25;;
58360;SDS011;44164;44.954;10.068;2022-12-07T04:11:43;3.60;;;2.92;;
58360;SDS011;44164;44.954;10.068;2022-12-07T04:14:09;3.22;;;2.42;;
58360;SDS011;44164;44.954;10.068;2022-12-07T04:16:48;3.65;;;2.90;;
58360;SDS011;44164;44.954;10.068;2022-12-07T04:19:16;3.80;;;2.67;;
58360;SDS011;44164;44.954;10.068;2022-12-07T04:21:43;3.33;;;2.60;;
58360;SDS011;44164;44.954;10.068;2022-12-07T04:24:11;3.58;;;2.80;;
58360;SDS011;44164;44.954;10.068;2022-12-07T04:26:38;3.22;;;2.67;;
58360;SDS011;44164;44.954;10.068;2022-12-07T04:29:04;3.08;;;2.40;;
58360;SDS011;44164;44.954;10.068;2022-12-07T04:31:30;3.22;;;2.55;;
58360;SDS011;44164;44.954;10.068;2022-12-07T04:33:56;3.17;;;2.72;;
58360;SDS011;44164;44.954;10.068;2022-12-07T04:36:22;3.10;;;2.67;;
58360;SDS011;44164;44.954;10.068;2022-12-07T04:38:48;3.05;;;2.40;;
58360;SDS011;44164;44.954;10.068;2022-12-07T04:41:15;2.85;;;2.40;;
58360;SDS011;44164;44.954;10.068;2022-12-07T04:43:41;3.20;;;2.15;;
58360;SDS011;44164;44.954;10.068;2022-12-07T04:46:07;2.90;;;2.42;;
58360;SDS011;44164;44.954;10.068;2022-12-07T04:48:33;2.92;;;2.60;;
58360;SDS011;44164;44.954;10.068;2022-12-07T04:50:59;3.00;;;2.60;;
58360;SDS011;44164;44.954;10.068;2022-12-07T04:53:25;3.55;;;2.42;;
58360;SDS011;44164;44.954;10.068;2022-12-07T04:55:51;2.72;;;2.40;;
58360;SDS011;44164;44.954;10.068;2022-12-07T04:58:17;3.25;;;2.47;;
58360;SDS011;44164;44.954;10.068;2022-12-07T05:00:43;2.92;;;2.55;;
58360;SDS011;44164;44.954;10.068;2022-12-07T05:03:09;3.40;;;3.03;;
58360;SDS011;44164;44.954;10.068;2022-12-07T05:05:36;3.53;;;2.67;;
58360;SDS011;44164;44.954;10.068;2022-12-07T05:08:02;3.20;;;2.72;;
58360;SDS011;44164;44.954;10.068;2022-12-07T05:10:28;3.53;;;3.05;;
58360;SDS011;44164;44.954;10.068;2022-12-07T05:12:54;4.43;;;3.55;;
58360;SDS011;44164;44.954;10.068;2022-12-07T05:15:20;3.45;;;3.00;;
58360;SDS011;44164;44.954;10.068;2022-12-07T05:17:46;3.45;;;2.97;;
58360;SDS011;44164;44.954;10.068;2022-12-07T05:20:12;3.88;;;3.13;;
58360;SDS011;44164;44.954;10.068;2022-12-07T05:22:39;3.58;;;3.28;;
58360;SDS011;44164;44.954;10.068;2022-12-07T05:25:05;4.05;;;2.97;;
58360;SDS011;44164;44.954;10.068;2022-12-07T05:27:31;3.58;;;2.88;;
58360;SDS011;44164;44.954;10.068;2022-12-07T05:29:57;3.60;;;3.22;;
58360;SDS011;44164;44.954;10.068;2022-12-07T05:32:23;3.75;;;2.95;;
58360;SDS011;44164;44.954;10.068;2022-12-07T05:34:50;3.53;;;2.80;;
58360;SDS011;44164;44.954;10.068;2022-12-07T05:37:16;4.20;;;3.00;;
58360;SDS011;44164;44.954;10.068;2022-12-07T05:39:42;4.68;;;3.72;;
58360;SDS011;44164;44.954;10.068;2022-12-07T05:42:09;9.77;;;6.97;;
58360;SDS011;44164;44.954;10.068;2022-12-07T05:44:39;12.25;;;10.55;;
58360;SDS011;44164;44.954;10.068;2022-12-07T05:47:12;12.95;;;11.68;;
58360;SDS011;44164;44.954;10.068;2022-12-07T05:49:39;13.87;;;12.37;;
58360;SDS011;44164;44.954;10.068;2022-12-07T05:52:05;15.77;;;14.10;;
58360;SDS011;44164;44.954;10.068;2022-12-07T05:54:32;13.60;;;12.20;;
58360;SDS011;44164;44.954;10.068;2022-12-07T05:56:58;15.55;;;13.90;;
58360;SDS011;44164;44.954;10.068;2022-12-07T05:59:25;13.32;;;12.02;;
58360;SDS011;44164;44.954;10.068;2022-12-07T06:01:54;15.90;;;14.20;;
58360;SDS011;44164;44.954;10.068;2022-12-07T06:04:22;13.52;;;12.13;;
58360;SDS011;44164;44.954;10.068;2022-12-07T06:06:49;14.95;;;13.25;;
58360;SDS011;44164;44.954;10.068;2022-12-07T06:09:15;14.82;;;13.30;;
58360;SDS011;44164;44.954;10.068;2022-12-07T06:11:41;14.23;;;12.73;;
58360;SDS011;44164;44.954;10.068;2022-12-07T06:14:26;13.77;;;12.35;;
58360;SDS011;44164;44.954;10.068;2022-12-07T06:16:52;13.75;;;12.00;;
58360;SDS011;44164;44.954;10.068;2022-12-07T06:19:19;12.70;;;11.40;;
58360;SDS011;44164;44.954;10.068;2022-12-07T06:21:45;10.50;;;9.50;;
58360;SDS011;44164;44.954;10.068;2022-12-07T06:24:11;13.48;;;9.13;;
58360;SDS011;44164;44.954;10.068;2022-12-07T06:26:39;9.55;;;8.55;;
58360;SDS011;44164;44.954;10.068;2022-12-07T06:29:05;8.75;;;7.85;;
58360;SDS011;44164;44.954;10.068;2022-12-07T06:31:31;8.77;;;7.78;;
58360;SDS011;44164;44.954;10.068;2022-12-07T06:34:04;8.02;;;7.22;;
58360;SDS011;44164;44.954;10.068;2022-12-07T06:36:41;8.80;;;6.70;;
58360;SDS011;44164;44.954;10.068;2022-12-07T06:39:07;8.05;;;7.20;;
58360;SDS011;44164;44.954;10.068;2022-12-07T06:41:37;7.70;;;6.90;;
58360;SDS011;44164;44.954;10.068;2022-12-07T06:44:05;6.80;;;6.10;;
58360;SDS011;44164;44.954;10.068;2022-12-07T06:46:31;8.33;;;6.17;;
58360;SDS011;44164;44.954;10.068;2022-12-07T06:48:58;7.00;;;5.82;;
58360;SDS011;44164;44.954;10.068;2022-12-07T06:51:24;7.78;;;6.07;;
58360;SDS011;44164;44.954;10.068;2022-12-07T06:53:50;5.97;;;5.38;;
58360;SDS011;44164;44.954;10.068;2022-12-07T06:56:16;7.82;;;4.88;;
58360;SDS011;44164;44.954;10.068;2022-12-07T06:58:42;5.60;;;4.70;;
58360;SDS011;44164;44.954;10.068;2022-12-07T07:01:12;6.25;;;5.65;;
58360;SDS011;44164;44.954;10.068;2022-12-07T07:03:39;6.47;;;5.82;;
58360;SDS011;44164;44.954;10.068;2022-12-07T07:06:05;6.47;;;5.25;;
58360;SDS011;44164;44.954;10.068;2022-12-07T07:08:33;7.05;;;5.65;;
58360;SDS011;44164;44.954;10.068;2022-12-07T07:11:00;6.07;;;5.47;;
58360;SDS011;44164;44.954;10.068;2022-12-07T07:13:26;5.28;;;4.78;;
58360;SDS011;44164;44.954;10.068;2022-12-07T07:15:53;6.28;;;4.78;;
58360;SDS011;44164;44.954;10.068;2022-12-07T07:18:20;5.70;;;5.10;;
58360;SDS011;44164;44.954;10.068;2022-12-07T07:20:46;5.40;;;4.60;;
58360;SDS011;44164;44.954;10.068;2022-12-07T07:23:12;7.30;;;5.20;;
58360;SDS011;44164;44.954;10.068;2022-12-07T07:25:38;5.47;;;4.82;;
58360;SDS011;44164;44.954;10.068;2022-12-07T07:28:04;5.63;;;4.78;;
58360;SDS011;44164;44.954;10.068;2022-12-07T07:30:31;5.18;;;4.63;;
58360;SDS011;44164;44.954;10.068;2022-12-07T07:32:57;6.55;;;4.53;;
58360;SDS011;44164;44.954;10.068;2022-12-07T07:35:25;5.27;;;4.77;;
58360;SDS011;44164;44.954;10.068;2022-12-07T07:37:51;5.03;;;4.53;;
58360;SDS011;44164;44.954;10.068;2022-12-07T07:40:17;5.18;;;4.20;;
58360;SDS011;44164;44.954;10.068;2022-12-07T07:42:46;4.85;;;3.95;;
58360;SDS011;44164;44.954;10.068;2022-12-07T07:45:13;4.43;;;3.60;;
58360;SDS011;44164;44.954;10.068;2022-12-07T07:47:39;4.22;;;3.65;;
58360;SDS011;44164;44.954;10.068;2022-12-07T07:50:06;7.88;;;4.03;;
58360;SDS011;44164;44.954;10.068;2022-12-07T07:52:32;4.30;;;3.63;;
58360;SDS011;44164;44.954;10.068;2022-12-07T07:54:58;6.28;;;4.13;;
58360;SDS011;44164;44.954;10.068;2022-12-07T07:57:24;6.45;;;3.95;;
58360;SDS011;44164;44.954;10.068;2022-12-07T07:59:50;4.85;;;3.47;;
58360;SDS011;44164;44.954;10.068;2022-12-07T08:02:17;3.95;;;3.28;;
58360;SDS011;44164;44.954;10.068;2022-12-07T08:04:44;4.35;;;3.70;;
58360;SDS011;44164;44.954;10.068;2022-12-07T08:07:11;6.07;;;3.78;;
58360;SDS011;44164;44.954;10.068;2022-12-07T08:09:38;4.47;;;3.85;;
58360;SDS011;44164;44.954;10.068;2022-12-07T08:12:04;4.53;;;3.70;;
58360;SDS011;44164;44.954;10.068;2022-12-07T08:14:31;4.13;;;3.58;;
58360;SDS011;44164;44.954;10.068;2022-12-07T08:16:57;5.45;;;4.10;;
58360;SDS011;44164;44.954;10.068;2022-12-07T08:19:23;4.82;;;3.55;;
58360;SDS011;44164;44.954;10.068;2022-12-07T08:21:49;3.92;;;3.28;;
58360;SDS011;44164;44.954;10.068;2022-12-07T08:24:16;4.38;;;3.63;;
58360;SDS011;44164;44.954;10.068;2022-12-07T08:26:42;5.32;;;3.63;;
58360;SDS011;44164;44.954;10.068;2022-12-07T08:29:08;4.13;;;3.47;;
58360;SDS011;44164;44.954;10.068;2022-12-07T08:31:34;3.67;;;2.92;;
58360;SDS011;44164;44.954;10.068;2022-12-07T08:34:00;4.68;;;3.85;;
58360;SDS011;44164;44.954;10.068;2022-12-07T08:36:27;3.60;;;3.15;;
58360;SDS011;44164;44.954;10.068;2022-12-07T08:38:53;4.80;;;3.45;;
58360;SDS011;44164;44.954;10.068;2022-12-07T08:41:20;3.92;;;3.03;;
58360;SDS011;44164;44.954;10.068;2022-12-07T08:43:46;3.28;;;2.95;;
58360;SDS011;44164;44.954;10.068;2022-12-07T08:48:44;4.18;;;3.25;;
58360;SDS011;44164;44.954;10.068;2022-12-07T08:51:17;3.72;;;3.33;;
58360;SDS011;44164;44.954;10.068;2022-12-07T08:53:43;3.70;;;3.17;;
58360;SDS011;44164;44.954;10.068;2022-12-07T08:56:09;4.10;;;3.28;;
58360;SDS011;44164;44.954;10.068;2022-12-07T08:58:36;3.70;;;3.30;;
58360;SDS011;44164;44.954;10.068;2022-12-07T09:01:03;4.80;;;3.50;;
58360;SDS011;44164;44.954;10.068;2022-12-07T09:03:30;3.75;;;3.33;;
58360;SDS011;44164;44.954;10.068;2022-12-07T09:05:57;3.63;;;3.08;;
58360;SDS011;44164;44.954;10.068;2022-12-07T09:08:25;3.78;;;3.30;;
58360;SDS011;44164;44.954;10.068;2022-12-07T09:10:54;4.60;;;3.85;;
58360;SDS011;44164;44.954;10.068;2022-12-07T09:13:20;3.70;;;3.30;;
58360;SDS011;44164;44.954;10.068;2022-12-07T09:15:46;3.47;;;2.95;;
58360;SDS011;44164;44.954;10.068;2022-12-07T09:18:12;4.53;;;3.60;;
58360;SDS011;44164;44.954;10.068;2022-12-07T09:20:38;3.78;;;3.33;;
58360;SDS011;44164;44.954;10.068;2022-12-07T09:23:07;3.92;;;3.05;;
58360;SDS011;44164;44.954;10.068;2022-12-07T09:25:34;3.70;;;3.10;;
58360;SDS011;44164;44.954;10.068;2022-12-07T09:28:00;4.03;;;3.50;;
58360;SDS011;44164;44.954;10.068;2022-12-07T09:30:26;3.67;;;3.15;;
58360;SDS011;44164;44.954;10.068;2022-12-07T09:32:53;4.18;;;3.33;;
58360;SDS011;44164;44.954;10.068;2022-12-07T09:35:21;3.88;;;3.45;;
58360;SDS011;44164;44.954;10.068;2022-12-07T09:37:47;3.60;;;2.92;;
58360;SDS011;44164;44.954;10.068;2022-12-07T09:40:13;3.80;;;3.03;;
58360;SDS011;44164;44.954;10.068;2022-12-07T09:42:41;3.70;;;3.00;;
58360;SDS011;44164;44.954;10.068;2022-12-07T09:45:12;4.20;;;3.28;;
58360;SDS011;44164;44.954;10.068;2022-12-07T09:47:41;3.53;;;2.92;;
58360;SDS011;44164;44.954;10.068;2022-12-07T09:50:10;3.80;;;3.33;;
58360;SDS011;44164;44.954;10.068;2022-12-07T09:52:39;3.75;;;3.00;;
58360;SDS011;44164;44.954;10.068;2022-12-07T09:55:10;3.28;;;2.88;;
58360;SDS011;44164;44.954;10.068;2022-12-07T09:57:47;4.70;;;3.60;;
58360;SDS011;44164;44.954;10.068;2022-12-07T10:00:15;4.32;;;3.10;;
58360;SDS011;44164;44.954;10.068;2022-12-07T10:02:43;3.95;;;3.55;;
58360;SDS011;44164;44.954;10.068;2022-12-07T10:05:41;4.93;;;3.20;;
58360;SDS011;44164;44.954;10.068;2022-12-07T10:08:10;3.58;;;3.15;;
58360;SDS011;44164;44.954;10.068;2022-12-07T10:10:37;3.92;;;3.47;;
58360;SDS011;44164;44.954;10.068;2022-12-07T10:13:05;3.97;;;3.10;;
58360;SDS011;44164;44.954;10.068;2022-12-07T10:18:25;3.90;;;3.45;;
58360;SDS011;44164;44.954;10.068;2022-12-07T10:24:08;3.92;;;3.53;;
58360;SDS011;44164;44.954;10.068;2022-12-07T10:31:45;4.03;;;3.15;;
58360;SDS011;44164;44.954;10.068;2022-12-07T10:34:31;3.60;;;3.15;;
58360;SDS011;44164;44.954;10.068;2022-12-07T10:37:20;3.95;;;3.38;;
58360;SDS011;44164;44.954;10.068;2022-12-07T10:39:52;4.68;;;4.00;;
58360;SDS011;44164;44.954;10.068;2022-12-07T10:42:21;5.80;;;4.28;;
58360;SDS011;44164;44.954;10.068;2022-12-07T10:44:48;5.57;;;4.78;;
58360;SDS011;44164;44.954;10.068;2022-12-07T10:49:52;5.50;;;3.88;;
58360;SDS011;44164;44.954;10.068;2022-12-07T11:03:37;4.10;;;3.70;;
58360;SDS011;44164;44.954;10.068;2022-12-07T11:06:16;4.65;;;3.63;;
58360;SDS011;44164;44.954;10.068;2022-12-07T11:11:58;6.30;;;4.05;;
58360;SDS011;44164;44.954;10.068;2022-12-07T11:22:50;5.43;;;3.88;;
58360;SDS011;44164;44.954;10.068;2022-12-07T11:25:28;5.75;;;3.75;;
58360;SDS011;44164;44.954;10.068;2022-12-07T11:28:02;4.30;;;3.40;;
58360;SDS011;44164;44.954;10.068;2022-12-07T11:38:57;4.80;;;3.58;;
58360;SDS011;44164;44.954;10.068;2022-12-07T11:41:28;4.90;;;3.72;;
58360;SDS011;44164;44.954;10.068;2022-12-07T11:46:44;4.90;;;3.38;;
58360;SDS011;44164;44.954;10.068;2022-12-07T11:52:02;3.85;;;3.30;;
58360;SDS011;44164;44.954;10.068;2022-12-07T11:54:32;4.45;;;3.75;;
58360;SDS011;44164;44.954;10.068;2022-12-07T11:57:03;3.88;;;3.10;;
58360;SDS011;44164;44.954;10.068;2022-12-07T11:59:32;4.50;;;3.63;;
58360;SDS011;44164;44.954;10.068;2022-12-07T12:02:26;4.63;;;4.05;;
58360;SDS011;44164;44.954;10.068;2022-12-07T12:04:54;4.53;;;3.58;;
58360;SDS011;44164;44.954;10.068;2022-12-07T12:07:25;4.82;;;3.90;;
58360;SDS011;44164;44.954;10.068;2022-12-07T12:20:32;7.05;;;4.13;;
58360;SDS011;44164;44.954;10.068;2022-12-07T12:25:52;5.45;;;4.80;;
58360;SDS011;44164;44.954;10.068;2022-12-07T12:31:13;4.70;;;4.20;;
58360;SDS011;44164;44.954;10.068;2022-12-07T12:33:52;7.55;;;5.97;;
58360;SDS011;44164;44.954;10.068;2022-12-07T12:50:35;7.03;;;5.78;;
58360;SDS011;44164;44.954;10.068;2022-12-07T12:53:22;6.75;;;5.38;;
58360;SDS011;44164;44.954;10.068;2022-12-07T12:55:58;8.38;;;6.05;;
58360;SDS011;44164;44.954;10.068;2022-12-07T12:58:40;6.80;;;5.28;;
58360;SDS011;44164;44.954;10.068;2022-12-07T13:03:53;6.68;;;5.00;;
58360;SDS011;44164;44.954;10.068;2022-12-07T13:06:31;5.85;;;4.30;;
58360;SDS011;44164;44.954;10.068;2022-12-07T13:09:01;5.78;;;4.45;;
58360;SDS011;44164;44.954;10.068;2022-12-07T13:11:35;5.93;;;4.65;;
58360;SDS011;44164;44.954;10.068;2022-12-07T13:17:12;6.00;;;4.45;;
58360;SDS011;44164;44.954;10.068;2022-12-07T13:19:59;5.38;;;4.10;;
58360;SDS011;44164;44.954;10.068;2022-12-07T13:24:56;6.40;;;4.45;;
58360;SDS011;44164;44.954;10.068;2022-12-07T13:27:29;6.32;;;4.53;;
58360;SDS011;44164;44.954;10.068;2022-12-07T13:29:56;5.97;;;4.55;;
58360;SDS011;44164;44.954;10.068;2022-12-07T13:32:23;6.28;;;4.70;;
58360;SDS011;44164;44.954;10.068;2022-12-07T13:34:50;5.35;;;4.25;;
58360;SDS011;44164;44.954;10.068;2022-12-07T13:37:26;7.13;;;4.72;;
58360;SDS011;44164;44.954;10.068;2022-12-07T13:39:58;5.90;;;5.07;;
58360;SDS011;44164;44.954;10.068;2022-12-07T13:42:26;5.53;;;4.25;;
58360;SDS011;44164;44.954;10.068;2022-12-07T13:44:54;6.45;;;4.95;;
58360;SDS011;44164;44.954;10.068;2022-12-07T13:49:56;6.50;;;4.68;;
58360;SDS011;44164;44.954;10.068;2022-12-07T13:54:57;5.70;;;4.38;;
58360;SDS011;44164;44.954;10.068;2022-12-07T13:57:25;7.03;;;5.45;;
58360;SDS011;44164;44.954;10.068;2022-12-07T13:59:52;6.32;;;4.53;;
58360;SDS011;44164;44.954;10.068;2022-12-07T14:02:20;7.38;;;5.03;;
58360;SDS011;44164;44.954;10.068;2022-12-07T14:04:51;5.80;;;4.82;;
58360;SDS011;44164;44.954;10.068;2022-12-07T14:07:31;6.63;;;5.05;;
58360;SDS011;44164;44.954;10.068;2022-12-07T14:10:05;5.80;;;4.40;;
58360;SDS011;44164;44.954;10.068;2022-12-07T14:12:35;6.03;;;4.65;;
58360;SDS011;44164;44.954;10.068;2022-12-07T14:15:02;7.50;;;5.22;;
58360;SDS011;44164;44.954;10.068;2022-12-07T14:17:29;6.20;;;5.00;;
58360;SDS011;44164;44.954;10.068;2022-12-07T14:19:59;6.45;;;5.43;;
58360;SDS011;44164;44.954;10.068;2022-12-07T14:25:26;7.13;;;5.18;;
58360;SDS011;44164;44.954;10.068;2022-12-07T14:27:58;6.43;;;4.88;;
58360;SDS011;44164;44.954;10.068;2022-12-07T14:30:27;8.05;;;4.82;;
58360;SDS011;44164;44.954;10.068;2022-12-07T14:32:59;5.25;;;4.75;;
58360;SDS011;44164;44.954;10.068;2022-12-07T14:35:26;5.65;;;4.57;;
58360;SDS011;44164;44.954;10.068;2022-12-07T14:37:52;6.53;;;4.57;;
58360;SDS011;44164;44.954;10.068;2022-12-07T14:40:23;9.07;;;5.25;;
58360;SDS011;44164;44.954;10.068;2022-12-07T14:42:51;6.65;;;5.28;;
58360;SDS011;44164;44.954;10.068;2022-12-07T14:45:41;8.20;;;5.07;;
58360;SDS011;44164;44.954;10.068;2022-12-07T14:48:08;5.32;;;4.82;;
58360;SDS011;44164;44.954;10.068;2022-12-07T14:50:38;7.13;;;4.80;;
58360;SDS011;44164;44.954;10.068;2022-12-07T14:53:17;7.05;;;5.38;;
58360;SDS011;44164;44.954;10.068;2022-12-07T14:55:53;7.20;;;5.60;;
58360;SDS011;44164;44.954;10.068;2022-12-07T14:58:20;8.68;;;5.90;;
58360;SDS011;44164;44.954;10.068;2022-12-07T15:00:46;5.90;;;5.15;;
58360;SDS011;44164;44.954;10.068;2022-12-07T15:03:13;7.68;;;5.75;;
58360;SDS011;44164;44.954;10.068;2022-12-07T15:05:40;6.50;;;5.40;;
58360;SDS011;44164;44.954;10.068;2022-12-07T15:08:08;5.60;;;4.93;;
58360;SDS011;44164;44.954;10.068;2022-12-07T15:13:04;7.65;;;6.15;;
58360;SDS011;44164;44.954;10.068;2022-12-07T15:15:49;6.43;;;5.25;;
58360;SDS011;44164;44.954;10.068;2022-12-07T15:18:18;7.05;;;5.50;;
58360;SDS011;44164;44.954;10.068;2022-12-07T15:20:45;9.43;;;5.70;;
58360;SDS011;44164;44.954;10.068;2022-12-07T15:23:12;11.13;;;5.60;;
58360;SDS011;44164;44.954;10.068;2022-12-07T15:25:42;6.47;;;5.28;;
58360;SDS011;44164;44.954;10.068;2022-12-07T15:28:09;9.05;;;5.32;;
58360;SDS011;44164;44.954;10.068;2022-12-07T15:30:38;7.28;;;5.20;;
58360;SDS011;44164;44.954;10.068;2022-12-07T15:33:06;6.57;;;5.15;;
58360;SDS011;44164;44.954;10.068;2022-12-07T15:35:32;7.32;;;5.70;;
58360;SDS011;44164;44.954;10.068;2022-12-07T15:37:58;7.57;;;5.13;;
58360;SDS011;44164;44.954;10.068;2022-12-07T15:40:24;8.07;;;5.45;;
58360;SDS011;44164;44.954;10.068;2022-12-07T15:42:50;8.13;;;5.63;;
58360;SDS011;44164;44.954;10.068;2022-12-07T15:45:16;7.38;;;5.15;;
58360;SDS011;44164;44.954;10.068;2022-12-07T15:47:43;5.93;;;4.97;;
58360;SDS011;44164;44.954;10.068;2022-12-07T15:50:12;6.13;;;4.95;;
58360;SDS011;44164;44.954;10.068;2022-12-07T15:52:39;6.25;;;4.72;;
58360;SDS011;44164;44.954;10.068;2022-12-07T15:55:06;7.55;;;6.32;;
58360;SDS011;44164;44.954;10.068;2022-12-07T15:57:33;9.07;;;7.05;;
58360;SDS011;44164;44.954;10.068;2022-12-07T15:59:59;8.85;;;7.13;;
58360;SDS011;44164;44.954;10.068;2022-12-07T16:02:25;11.52;;;8.27;;
58360;SDS011;44164;44.954;10.068;2022-12-07T16:04:51;10.77;;;7.35;;
58360;SDS011;44164;44.954;10.068;2022-12-07T16:07:18;9.90;;;7.82;;
58360;SDS011;44164;44.954;10.068;2022-12-07T16:09:45;10.77;;;8.05;;
58360;SDS011;44164;44.954;10.068;2022-12-07T16:12:12;11.15;;;7.63;;
58360;SDS011;44164;44.954;10.068;2022-12-07T16:14:39;15.10;;;9.75;;
58360;SDS011;44164;44.954;10.068;2022-12-07T16:17:06;14.90;;;10.23;;
58360;SDS011;44164;44.954;10.068;2022-12-07T16:19:33;11.32;;;9.02;;
58360;SDS011;44164;44.954;10.068;2022-12-07T16:22:00;12.15;;;10.60;;
58360;SDS011;44164;44.954;10.068;2022-12-07T16:24:26;11.65;;;9.77;;
58360;SDS011;44164;44.954;10.068;2022-12-07T16:26:53;15.10;;;10.55;;
58360;SDS011;44164;44.954;10.068;2022-12-07T16:29:20;10.68;;;9.30;;
58360;SDS011;44164;44.954;10.068;2022-12-07T16:31:47;11.43;;;9.20;;
58360;SDS011;44164;44.954;10.068;2022-12-07T16:34:14;11.98;;;9.23;;
58360;SDS011;44164;44.954;10.068;2022-12-07T16:36:40;12.60;;;9.15;;
58360;SDS011;44164;44.954;10.068;2022-12-07T16:39:07;10.80;;;8.70;;
58360;SDS011;44164;44.954;10.068;2022-12-07T16:41:34;10.80;;;8.40;;
58360;SDS011;44164;44.954;10.068;2022-12-07T16:44:07;11.00;;;8.05;;
58360;SDS011;44164;44.954;10.068;2022-12-07T16:46:36;10.70;;;7.18;;
58360;SDS011;44164;44.954;10.068;2022-12-07T16:49:02;10.60;;;7.55;;
58360;SDS011;44164;44.954;10.068;2022-12-07T16:51:29;8.57;;;7.60;;
58360;SDS011;44164;44.954;10.068;2022-12-07T16:53:56;11.25;;;7.80;;
58360;SDS011;44164;44.954;10.068;2022-12-07T16:56:22;9.20;;;7.03;;
58360;SDS011;44164;44.954;10.068;2022-12-07T16:58:49;7.82;;;6.22;;
58360;SDS011;44164;44.954;10.068;2022-12-07T17:01:16;7.68;;;6.18;;